Погода Каталанна 2 недели

Гояс, Бразилия

13 - 25 июля
  • 13июля
    Сегодня
    +15°
    +30°
    Ясно и безоблачно
    ВремяПогодаТемператураВлажностьДавлениеВетер, м/сВероятность осадков
    00:00Ясно и безоблачно+20°C63 %691 мм2.2 м/с5 %
    03:00Ясно и безоблачно+18°C58 %690 мм2.8 м/с5 %
    06:00Ясно и безоблачно+17°C54 %691 мм3.7 м/с5 %
    09:00Ясно и безоблачно+21°C46 %693 мм2.0 м/с5 %
    12:00Ясно и безоблачно+26°C34 %693 мм5.3 м/с5 %
    15:00Ясно и безоблачно+28°C29 %692 мм1.4 м/с5 %
    18:00Ясно и безоблачно+24°C38 %691 мм2.1 м/с5 %
    21:00Ясно и безоблачно+22°C48 %692 мм0.7 м/с5 %
  • 14июля
    Воскресенье
    +14°
    +29°
    Ясно и безоблачно
    ВремяПогодаТемператураВлажностьДавлениеВетер, м/сВероятность осадков
    00:00Ясно и безоблачно+19°C58 %691 мм2.1 м/с5 %
    03:00Ясно и безоблачно+17°C57 %690 мм3.1 м/с5 %
    06:00Ясно и безоблачно+16°C63 %690 мм3.1 м/с5 %
    09:00Ясно и безоблачно+20°C49 %693 мм1.9 м/с5 %
    12:00Ясно и безоблачно+25°C34 %693 мм4.3 м/с5 %
    15:00Ясно и безоблачно+28°C29 %691 мм1.0 м/с5 %
    18:00Практически безоблачно+23°C38 %690 мм1.9 м/с5 %
    21:00Ясно и безоблачно+21°C46 %691 мм0.8 м/с5 %
  • 15июля
    Понедельник
    +15°
    +30°
    Ясно и безоблачно
    ВремяПогодаТемператураВлажностьДавлениеВетер, м/сВероятность осадков
    00:00Ясно и безоблачно+19°C56 %691 мм2.3 м/с5 %
    03:00Ясно и безоблачно+16°C66 %689 мм2.3 м/с5 %
    06:00Ясно и безоблачно+14°C73 %689 мм2.2 м/с5 %
    09:00Ясно и безоблачно+21°C46 %693 мм1.5 м/с5 %
    12:00Ясно и безоблачно+26°C29 %693 мм3.4 м/с5 %
    15:00Ясно и безоблачно+28°C26 %692 мм1.0 м/с5 %
    18:00Ясно и безоблачно+24°C32 %692 мм2.0 м/с5 %
    21:00Ясно и безоблачно+22°C41 %692 мм0.8 м/с5 %
  • 16июля
    Вторник
    +15°
    +30°
    Практически безоблачно
    ВремяПогодаТемператураВлажностьДавлениеВетер, м/сВероятность осадков
    00:00Ясно и безоблачно+19°C48 %692 мм2.6 м/с5 %
    03:00Практически безоблачно+17°C53 %690 мм2.3 м/с5 %
    06:00Небольшая облачность+15°C60 %690 мм2.3 м/с5 %
    09:00Облачно с прояснениями+21°C41 %693 мм1.6 м/с5 %
    12:00Небольшая облачность+27°C29 %693 мм3.9 м/с5 %
    15:00Практически безоблачно+28°C27 %692 мм1.1 м/с5 %
    18:00Облачно с прояснениями+24°C34 %692 мм1.9 м/с5 %
    21:00Ясно и безоблачно+22°C41 %693 мм0.8 м/с5 %
Мы используем cookies
Соглашаюсь